createdAt,value
2022-09-16T00:02:00.364Z,3.15
2022-09-16T00:04:27.551Z,3.05
2022-09-16T00:06:56.916Z,3.55
2022-09-16T00:09:23.989Z,3.53
2022-09-16T00:11:51.102Z,3.42
2022-09-16T00:14:18.164Z,3.30
2022-09-16T00:16:45.478Z,3.70
2022-09-16T00:19:13.247Z,3.45
2022-09-16T00:21:40.470Z,3.30
2022-09-16T00:24:07.788Z,3.20
2022-09-16T00:26:34.887Z,3.50
2022-09-16T00:29:04.302Z,3.05
2022-09-16T00:31:31.427Z,3.75
2022-09-16T00:33:58.592Z,4.05
2022-09-16T00:36:25.828Z,4.35
2022-09-16T00:38:55.007Z,4.40
2022-09-16T00:41:24.100Z,4.07
2022-09-16T00:43:54.238Z,4.32
2022-09-16T00:46:30.388Z,3.90
2022-09-16T00:49:01.186Z,4.10
2022-09-16T00:51:28.960Z,4.00
2022-09-16T00:53:59.409Z,3.80
2022-09-16T00:56:31.916Z,3.92
2022-09-16T00:59:22.039Z,3.92
2022-09-16T01:01:49.806Z,3.67
2022-09-16T01:04:22.916Z,3.80
2022-09-16T01:06:50.114Z,4.05
2022-09-16T01:09:17.658Z,4.25
2022-09-16T01:11:44.752Z,4.10
2022-09-16T01:14:31.072Z,3.70
2022-09-16T01:17:36.595Z,4.30
2022-09-16T01:20:23.325Z,4.30
2022-09-16T01:22:53.383Z,4.60
2022-09-16T01:25:35.568Z,4.60
2022-09-16T01:28:22.094Z,4.60
2022-09-16T01:30:54.119Z,5.18
2022-09-16T01:33:56.850Z,4.68
2022-09-16T01:36:26.860Z,4.55
2022-09-16T01:38:53.971Z,4.00
2022-09-16T01:41:21.047Z,4.20
2022-09-16T01:43:54.692Z,3.95
2022-09-16T01:46:21.739Z,4.00
2022-09-16T01:48:58.957Z,3.80
2022-09-16T01:51:32.950Z,3.92
2022-09-16T01:54:03.826Z,4.38
2022-09-16T01:56:57.178Z,4.43
2022-09-16T01:59:32.270Z,3.65
2022-09-16T02:02:22.806Z,3.60
2022-09-16T02:04:57.283Z,4.15
2022-09-16T02:07:27.009Z,4.20
2022-09-16T02:09:57.557Z,3.58
2022-09-16T02:12:28.171Z,4.25
2022-09-16T02:14:57.888Z,4.43
2022-09-16T02:17:27.672Z,4.68
2022-09-16T02:20:01.221Z,4.03
2022-09-16T02:24:55.487Z,4.38
2022-09-16T02:27:23.878Z,3.90
2022-09-16T02:29:56.270Z,3.90
2022-09-16T02:32:24.995Z,4.30
2022-09-16T02:34:54.626Z,4.55
2022-09-16T02:37:28.195Z,3.83
2022-09-16T02:42:24.113Z,3.90
2022-09-16T02:44:51.228Z,4.93
2022-09-16T02:47:21.294Z,5.05
2022-09-16T02:49:56.766Z,5.15
2022-09-16T02:52:37.204Z,5.15
2022-09-16T02:55:23.343Z,5.18
2022-09-16T02:57:51.063Z,4.90
2022-09-16T03:00:18.253Z,5.28
2022-09-16T03:02:46.103Z,4.90
2022-09-16T03:05:13.440Z,4.90
2022-09-16T03:07:41.512Z,4.60
2022-09-16T03:10:15.060Z,4.90
2022-09-16T03:15:12.190Z,4.43
2022-09-16T03:17:39.240Z,4.63
2022-09-16T03:20:12.804Z,4.63
2022-09-16T03:22:58.959Z,4.60
2022-09-16T03:25:28.865Z,4.38
2022-09-16T03:28:01.327Z,4.03
2022-09-16T03:30:31.134Z,4.30
2022-09-16T03:33:00.834Z,4.32
2022-09-16T03:35:33.456Z,4.55
2022-09-16T03:38:01.362Z,4.68
2022-09-16T03:40:30.106Z,5.30
2022-09-16T03:42:58.373Z,4.78
2022-09-16T03:45:25.457Z,4.38
2022-09-16T03:47:54.166Z,4.75
2022-09-16T03:50:21.763Z,4.55
2022-09-16T03:52:48.904Z,4.50
2022-09-16T03:55:17.000Z,4.80
2022-09-16T03:57:44.238Z,6.07
2022-09-16T04:00:11.804Z,7.25
2022-09-16T04:02:39.077Z,6.35
2022-09-16T04:05:06.483Z,5.22
2022-09-16T04:07:34.064Z,5.20
2022-09-16T04:10:01.948Z,4.75
2022-09-16T04:12:29.637Z,5.38
2022-09-16T04:14:57.162Z,5.18
2022-09-16T04:17:24.621Z,5.15
2022-09-16T04:19:53.074Z,5.03
2022-09-16T04:22:20.177Z,4.90
2022-09-16T04:24:50.067Z,4.50
2022-09-16T04:27:17.221Z,4.07
2022-09-16T04:29:44.260Z,4.82
2022-09-16T04:32:11.323Z,4.97
2022-09-16T04:34:38.484Z,5.68
2022-09-16T04:37:05.529Z,5.53
2022-09-16T04:39:32.769Z,5.85
2022-09-16T04:42:01.053Z,6.85
2022-09-16T04:44:30.356Z,7.35
2022-09-16T04:46:57.421Z,7.57
2022-09-16T04:49:24.657Z,7.35
2022-09-16T04:51:52.388Z,6.95
2022-09-16T04:54:19.592Z,6.03
2022-09-16T04:56:46.877Z,6.53
2022-09-16T04:59:14.047Z,5.85
2022-09-16T05:01:41.896Z,6.18
2022-09-16T05:04:10.414Z,7.30
2022-09-16T05:06:38.971Z,7.68
2022-09-16T05:09:06.452Z,7.65
2022-09-16T05:11:37.873Z,6.22
2022-09-16T05:14:06.506Z,6.18
2022-09-16T05:16:33.842Z,6.47
2022-09-16T05:19:04.583Z,6.45
2022-09-16T05:21:33.054Z,7.22
2022-09-16T05:24:01.418Z,7.47
2022-09-16T05:26:29.381Z,7.15
2022-09-16T05:28:56.490Z,7.13
2022-09-16T05:31:25.579Z,7.15
2022-09-16T05:33:57.195Z,6.80
2022-09-16T05:36:24.676Z,6.90
2022-09-16T05:39:18.145Z,7.40
2022-09-16T05:41:39.145Z,7.22
2022-09-16T05:44:09.605Z,6.95
2022-09-16T05:46:37.538Z,6.75
2022-09-16T05:49:05.107Z,6.13
2022-09-16T05:51:32.243Z,6.90
2022-09-16T05:54:00.052Z,6.20
2022-09-16T05:56:29.033Z,6.28
2022-09-16T05:58:57.257Z,5.07
2022-09-16T06:01:27.099Z,5.90
2022-09-16T06:03:55.161Z,6.28
2022-09-16T06:06:27.091Z,5.05
2022-09-16T06:08:55.126Z,5.57
2022-09-16T06:11:22.602Z,5.45
2022-09-16T06:13:55.679Z,5.43
2022-09-16T06:16:23.776Z,5.95
2022-09-16T06:18:50.847Z,9.00
2022-09-16T06:21:18.903Z,7.72
2022-09-16T06:23:45.973Z,7.63
2022-09-16T06:26:17.693Z,8.15
2022-09-16T06:28:45.887Z,6.75
2022-09-16T06:31:14.350Z,8.68
2022-09-16T06:33:41.700Z,7.57
2022-09-16T06:36:10.016Z,7.10
2022-09-16T06:38:37.375Z,6.47
2022-09-16T06:41:05.827Z,5.95
2022-09-16T06:43:32.908Z,5.93
2022-09-16T06:46:00.932Z,5.30
2022-09-16T06:48:28.248Z,4.82
2022-09-16T06:50:59.742Z,4.97
2022-09-16T06:53:26.858Z,4.68
2022-09-16T06:55:54.015Z,3.95
2022-09-16T06:58:21.119Z,3.47
2022-09-16T07:00:48.299Z,2.90
2022-09-16T07:03:15.407Z,2.78
2022-09-16T07:05:42.527Z,2.70
2022-09-16T07:08:09.577Z,2.70
2022-09-16T07:10:36.654Z,4.15
2022-09-16T07:13:04.321Z,2.65
2022-09-16T07:15:31.389Z,2.08
2022-09-16T07:17:58.514Z,1.50
2022-09-16T07:20:25.647Z,1.67
2022-09-16T07:22:54.021Z,1.23
2022-09-16T07:25:21.142Z,1.33
2022-09-16T07:27:48.351Z,1.00
2022-09-16T07:30:15.571Z,0.90
2022-09-16T07:32:42.801Z,1.17
2022-09-16T07:35:09.968Z,0.70
2022-09-16T07:37:41.934Z,0.75
2022-09-16T07:40:10.010Z,1.20
2022-09-16T07:42:37.138Z,0.70
2022-09-16T07:45:04.283Z,0.38
2022-09-16T07:47:31.452Z,0.50
2022-09-16T07:49:59.435Z,0.57
2022-09-16T07:52:29.370Z,0.50
2022-09-16T07:54:56.908Z,0.60
2022-09-16T07:57:24.478Z,0.70
2022-09-16T07:59:51.600Z,0.60
2022-09-16T08:02:18.802Z,0.90
2022-09-16T08:04:46.053Z,0.57
2022-09-16T08:07:13.126Z,0.60
2022-09-16T08:09:41.998Z,0.60
2022-09-16T08:12:14.711Z,0.70
2022-09-16T08:14:41.902Z,0.60
2022-09-16T08:17:08.970Z,0.35
2022-09-16T08:19:38.454Z,0.65
2022-09-16T08:22:05.905Z,0.52
2022-09-16T08:24:32.985Z,0.73
2022-09-16T08:27:00.152Z,0.40
2022-09-16T08:29:27.390Z,0.93
2022-09-16T08:31:54.617Z,0.70
2022-09-16T08:34:21.762Z,0.50
2022-09-16T08:36:48.899Z,0.75
2022-09-16T08:39:16.045Z,0.80
2022-09-16T08:41:56.189Z,0.60
2022-09-16T08:44:29.292Z,0.55
2022-09-16T08:47:03.582Z,0.50
2022-09-16T08:49:37.220Z,0.50
2022-09-16T08:52:14.324Z,0.52
2022-09-16T08:54:45.153Z,0.40
2022-09-16T08:57:15.272Z,0.77
2022-09-16T08:59:45.704Z,1.50
2022-09-16T09:02:19.123Z,0.52
2022-09-16T09:04:46.596Z,0.60
2022-09-16T09:07:13.762Z,0.60
2022-09-16T09:09:59.718Z,1.55
2022-09-16T09:12:40.925Z,0.40
2022-09-16T09:15:08.811Z,0.90
2022-09-16T09:17:48.684Z,0.90
2022-09-16T09:20:16.263Z,1.23
2022-09-16T09:23:08.306Z,0.80
2022-09-16T09:25:43.587Z,0.40
2022-09-16T09:28:22.502Z,2.25
2022-09-16T09:31:11.051Z,1.05
2022-09-16T09:33:46.818Z,0.50
2022-09-16T09:36:38.627Z,0.55
2022-09-16T09:39:10.794Z,0.57
2022-09-16T09:41:40.377Z,0.50
2022-09-16T09:44:30.820Z,0.90
2022-09-16T09:47:01.296Z,0.65
2022-09-16T09:49:37.699Z,0.60
2022-09-16T09:52:13.538Z,0.40
2022-09-16T09:54:44.638Z,0.30
2022-09-16T09:57:23.989Z,0.50
2022-09-16T10:00:05.808Z,0.47
2022-09-16T10:02:33.092Z,0.30
2022-09-16T10:05:01.933Z,0.30
2022-09-16T10:07:29.207Z,0.38
2022-09-16T10:10:01.783Z,0.50
2022-09-16T10:12:30.331Z,0.45
2022-09-16T10:14:57.517Z,0.35
2022-09-16T10:17:26.283Z,0.43
2022-09-16T10:19:54.931Z,1.08
2022-09-16T10:22:25.032Z,0.40
2022-09-16T10:24:56.413Z,0.25
2022-09-16T10:27:32.792Z,0.60
2022-09-16T10:32:59.017Z,0.57
2022-09-16T10:35:30.407Z,0.30
2022-09-16T10:38:05.980Z,0.30
2022-09-16T10:40:33.288Z,0.30
2022-09-16T10:43:08.556Z,0.43
2022-09-16T10:45:37.520Z,0.28
2022-09-16T10:48:08.303Z,0.60
2022-09-16T10:50:35.444Z,0.30
2022-09-16T10:53:02.549Z,0.35
2022-09-16T10:55:30.751Z,0.30
2022-09-16T10:58:15.143Z,0.30
2022-09-16T11:00:57.107Z,0.40
2022-09-16T11:03:27.331Z,0.50
2022-09-16T11:06:13.533Z,0.43
2022-09-16T11:08:53.054Z,0.50
2022-09-16T11:11:38.971Z,0.30
2022-09-16T11:14:13.456Z,0.20
2022-09-16T11:16:43.754Z,0.30
2022-09-16T11:19:25.966Z,0.28
2022-09-16T11:22:04.325Z,0.22
2022-09-16T11:24:31.406Z,0.28
2022-09-16T11:27:17.308Z,0.20
2022-09-16T11:29:55.881Z,0.20
2022-09-16T11:32:33.242Z,0.40
2022-09-16T11:35:05.515Z,0.30
2022-09-16T11:37:51.457Z,0.75
2022-09-16T11:40:29.164Z,0.47
2022-09-16T11:43:06.691Z,0.47
2022-09-16T11:45:42.996Z,0.30
2022-09-16T11:48:24.789Z,0.40
2022-09-16T11:51:01.425Z,0.43
2022-09-16T11:53:34.473Z,0.40
2022-09-16T11:56:09.471Z,0.60
2022-09-16T11:58:57.049Z,0.70
2022-09-16T12:01:27.235Z,0.82
2022-09-16T12:04:03.290Z,0.70
2022-09-16T12:06:35.143Z,0.20
2022-09-16T12:09:09.107Z,0.32
2022-09-16T12:11:41.371Z,0.40
2022-09-16T12:14:13.048Z,0.40
2022-09-16T12:16:48.611Z,0.60
2022-09-16T12:19:19.602Z,0.30
2022-09-16T12:21:47.064Z,0.40
2022-09-16T12:24:18.720Z,0.20
2022-09-16T12:26:48.881Z,0.20
2022-09-16T12:29:19.125Z,0.30
2022-09-16T12:32:05.230Z,0.98
2022-09-16T12:34:53.186Z,0.60
2022-09-16T12:37:28.804Z,0.93
2022-09-16T12:39:56.027Z,0.38
2022-09-16T12:42:45.982Z,0.40
2022-09-16T12:45:23.572Z,0.50
2022-09-16T12:47:58.776Z,0.30
2022-09-16T12:50:41.125Z,0.30
2022-09-16T12:53:20.313Z,0.50
2022-09-16T12:56:06.054Z,0.40
2022-09-16T12:58:49.460Z,0.90
2022-09-16T13:01:19.893Z,0.73
2022-09-16T13:03:49.147Z,0.40
2022-09-16T13:06:22.026Z,0.82
2022-09-16T13:08:49.312Z,0.88
2022-09-16T13:12:16.158Z,0.50
2022-09-16T13:14:16.253Z,0.55
2022-09-16T13:16:52.891Z,0.82
2022-09-16T13:19:21.305Z,0.60
2022-09-16T13:21:49.036Z,0.50
2022-09-16T13:24:25.693Z,0.40
2022-09-16T13:26:52.868Z,0.43
2022-09-16T13:29:40.598Z,0.40
2022-09-16T13:32:25.161Z,0.40
2022-09-16T13:35:06.071Z,0.40
2022-09-16T13:37:33.185Z,0.20
2022-09-16T13:40:09.814Z,0.85
2022-09-16T13:42:37.290Z,0.50
2022-09-16T13:45:04.522Z,0.28
2022-09-16T13:47:36.094Z,0.40
2022-09-16T13:50:08.733Z,0.30
2022-09-16T13:52:39.499Z,0.30
2022-09-16T13:55:11.715Z,0.50
2022-09-16T13:57:44.308Z,0.28
2022-09-16T14:00:11.638Z,0.60
2022-09-16T14:02:57.734Z,0.30
2022-09-16T14:05:44.421Z,0.40
2022-09-16T14:08:19.087Z,0.40
2022-09-16T14:10:49.263Z,0.40
2022-09-16T14:13:20.612Z,0.50
2022-09-16T14:15:50.576Z,0.57
2022-09-16T14:18:19.507Z,0.43
2022-09-16T14:20:54.985Z,0.70
2022-09-16T14:23:23.728Z,0.40
2022-09-16T14:25:52.297Z,0.40
2022-09-16T14:28:24.029Z,0.55
2022-09-16T14:30:53.224Z,0.63
2022-09-16T14:33:23.086Z,0.40
2022-09-16T14:35:50.611Z,0.60
2022-09-16T14:38:43.831Z,0.57
2022-09-16T14:41:08.297Z,0.45
2022-09-16T14:43:38.129Z,1.23
2022-09-16T14:46:07.529Z,1.38
2022-09-16T14:48:36.287Z,0.90
2022-09-16T14:51:03.929Z,0.82
2022-09-16T14:53:36.943Z,0.60
2022-09-16T14:56:06.008Z,0.60
2022-09-16T14:58:33.887Z,0.30
2022-09-16T15:01:08.874Z,0.43
2022-09-16T15:03:49.213Z,0.60
2022-09-16T15:06:18.281Z,0.40
2022-09-16T15:08:48.742Z,0.30
2022-09-16T15:11:29.939Z,0.20
2022-09-16T15:14:07.159Z,0.28
2022-09-16T15:16:34.810Z,0.52
2022-09-16T15:19:03.953Z,0.32
2022-09-16T15:21:33.338Z,0.40
2022-09-16T15:24:01.769Z,0.35
2022-09-16T15:26:31.972Z,0.32
2022-09-16T15:29:01.144Z,0.65
2022-09-16T15:31:34.888Z,0.43
2022-09-16T15:34:03.986Z,0.50
2022-09-16T15:36:34.259Z,0.40
2022-09-16T15:39:01.363Z,0.52
2022-09-16T15:41:28.733Z,0.40
2022-09-16T15:43:55.853Z,0.50
2022-09-16T15:46:23.759Z,0.30
2022-09-16T15:48:58.574Z,0.40
2022-09-16T15:51:33.744Z,0.85
2022-09-16T15:54:06.285Z,0.57
2022-09-16T15:56:35.418Z,1.00
2022-09-16T15:59:21.498Z,0.90
2022-09-16T16:01:53.457Z,0.73
2022-09-16T16:04:26.237Z,0.40
2022-09-16T16:06:55.744Z,0.40
2022-09-16T16:09:30.527Z,0.38
2022-09-16T16:11:58.352Z,0.40
2022-09-16T16:14:27.550Z,0.73
2022-09-16T16:17:12.242Z,0.40
2022-09-16T16:19:41.229Z,0.50
2022-09-16T16:22:09.059Z,0.70
2022-09-16T16:24:37.051Z,0.43
2022-09-16T16:27:04.778Z,0.60
2022-09-16T16:29:32.077Z,1.80
2022-09-16T16:32:03.270Z,1.17
2022-09-16T16:34:34.513Z,1.40
2022-09-16T16:37:01.812Z,1.15
2022-09-16T16:39:28.913Z,2.03
2022-09-16T16:41:55.987Z,2.00
2022-09-16T16:44:24.564Z,1.70
2022-09-16T16:46:52.557Z,2.45
2022-09-16T16:49:19.838Z,2.30
2022-09-16T16:51:49.579Z,2.33
2022-09-16T16:54:16.890Z,1.55
2022-09-16T16:56:44.065Z,2.90
2022-09-16T16:59:11.929Z,2.45
2022-09-16T17:01:39.264Z,2.65
2022-09-16T17:04:06.443Z,2.70
2022-09-16T17:06:35.031Z,2.30
2022-09-16T17:09:02.369Z,2.75
2022-09-16T17:11:30.198Z,3.42
2022-09-16T17:14:01.628Z,3.15
2022-09-16T17:16:29.271Z,3.60
2022-09-16T17:18:57.261Z,3.80
2022-09-16T17:21:25.645Z,3.88
2022-09-16T17:23:53.383Z,6.68
2022-09-16T17:26:21.242Z,6.50
2022-09-16T17:28:49.182Z,7.72
2022-09-16T17:31:17.829Z,6.57
2022-09-16T17:33:45.078Z,6.25
2022-09-16T17:36:13.889Z,6.63
2022-09-16T17:38:41.078Z,6.55
2022-09-16T17:41:09.271Z,6.07
2022-09-16T17:43:36.449Z,5.53
2022-09-16T17:46:05.129Z,5.95
2022-09-16T17:48:32.352Z,7.25
2022-09-16T17:50:59.890Z,6.40
2022-09-16T17:53:27.191Z,4.95
2022-09-16T17:56:01.766Z,6.18
2022-09-16T17:58:29.043Z,7.38
2022-09-16T18:00:56.219Z,5.65
2022-09-16T18:03:23.591Z,5.05
2022-09-16T18:05:51.469Z,5.07
2022-09-16T18:08:18.599Z,5.65
2022-09-16T18:10:54.493Z,6.55
2022-09-16T18:13:21.563Z,6.10
2022-09-16T18:15:48.941Z,5.35
2022-09-16T18:18:17.561Z,5.65
2022-09-16T18:20:45.104Z,5.60
2022-09-16T18:23:12.223Z,5.30
2022-09-16T18:25:39.388Z,4.82
2022-09-16T18:28:06.506Z,5.03
2022-09-16T18:30:33.619Z,4.68
2022-09-16T18:33:00.757Z,4.13
2022-09-16T18:35:27.834Z,4.45
2022-09-16T18:37:54.907Z,4.45
2022-09-16T18:40:22.087Z,5.10
2022-09-16T18:42:49.202Z,5.50
2022-09-16T18:45:16.345Z,5.53
2022-09-16T18:47:43.463Z,5.53
2022-09-16T18:50:13.218Z,7.10
2022-09-16T18:52:40.524Z,7.60
2022-09-16T18:55:07.751Z,7.15
2022-09-16T18:57:34.846Z,7.15
2022-09-16T19:00:02.362Z,7.00
2022-09-16T19:02:29.509Z,6.85
2022-09-16T19:04:56.609Z,7.22
2022-09-16T19:07:27.966Z,7.50
2022-09-16T19:09:55.492Z,6.78
2022-09-16T19:12:22.553Z,6.25
2022-09-16T19:14:49.953Z,5.20
2022-09-16T19:17:17.199Z,5.63
2022-09-16T19:19:44.314Z,4.82
2022-09-16T19:22:11.377Z,5.28
2022-09-16T19:24:38.520Z,4.47
2022-09-16T19:27:05.704Z,4.80
2022-09-16T19:29:32.871Z,4.82
2022-09-16T19:31:59.954Z,5.38
2022-09-16T19:34:27.113Z,5.43
2022-09-16T19:36:56.451Z,5.20
2022-09-16T19:39:23.988Z,5.63
2022-09-16T19:41:51.066Z,4.93
2022-09-16T19:44:19.020Z,5.30
2022-09-16T19:46:49.064Z,5.15
2022-09-16T19:49:17.900Z,5.40
2022-09-16T19:51:45.157Z,5.35
2022-09-16T19:54:16.022Z,5.05
2022-09-16T19:56:46.951Z,5.53
2022-09-16T20:01:44.075Z,5.20
2022-09-16T20:04:11.860Z,4.93
2022-09-16T20:06:40.612Z,5.95
2022-09-16T20:09:09.262Z,5.80
2022-09-16T20:11:37.874Z,5.10
2022-09-16T20:14:06.700Z,5.47
2022-09-16T20:19:58.874Z,4.63
2022-09-16T20:22:26.002Z,5.05
2022-09-16T20:25:06.486Z,4.68
2022-09-16T20:27:40.362Z,4.00
2022-09-16T20:30:07.856Z,4.13
2022-09-16T20:32:34.931Z,4.72
2022-09-16T20:35:01.998Z,4.55
2022-09-16T20:37:29.061Z,4.75
2022-09-16T20:39:56.564Z,5.07
2022-09-16T20:42:23.700Z,7.57
2022-09-16T20:44:50.790Z,8.23
2022-09-16T20:47:18.297Z,7.45
2022-09-16T20:49:45.422Z,7.63
2022-09-16T20:52:12.473Z,6.03
2022-09-16T20:54:39.573Z,5.63
2022-09-16T20:57:06.734Z,4.30
2022-09-16T20:59:34.071Z,5.18
2022-09-16T21:02:04.045Z,4.07
2022-09-16T21:04:31.201Z,4.55
2022-09-16T21:06:58.251Z,4.90
2022-09-16T21:09:25.313Z,4.47
2022-09-16T21:11:52.804Z,4.68
2022-09-16T21:14:21.712Z,3.40
2022-09-16T21:16:49.432Z,4.00
2022-09-16T21:19:17.854Z,4.13
2022-09-16T21:21:47.404Z,4.05
2022-09-16T21:24:14.893Z,3.67
2022-09-16T21:26:43.811Z,3.97
2022-09-16T21:29:12.656Z,3.83
2022-09-16T21:31:40.972Z,3.65
2022-09-16T21:34:11.364Z,4.85
2022-09-16T21:36:40.187Z,4.47
2022-09-16T21:39:07.995Z,3.90
2022-09-16T21:41:35.040Z,4.07
2022-09-16T21:44:02.222Z,4.00
2022-09-16T21:46:31.705Z,3.38
2022-09-16T21:49:02.091Z,6.15
2022-09-16T21:51:35.182Z,5.47
2022-09-16T21:54:03.298Z,7.80
2022-09-16T21:56:31.050Z,7.75
2022-09-16T21:58:58.504Z,5.50
2022-09-16T22:01:27.856Z,4.57
2022-09-16T22:03:56.181Z,3.40
2022-09-16T22:06:25.471Z,3.03
2022-09-16T22:08:53.603Z,2.97
2022-09-16T22:11:21.512Z,3.00
2022-09-16T22:13:49.086Z,2.70
2022-09-16T22:16:18.417Z,3.03
2022-09-16T22:18:45.667Z,3.97
2022-09-16T22:21:13.769Z,3.03
2022-09-16T22:23:41.182Z,2.88
2022-09-16T22:26:09.366Z,2.53
2022-09-16T22:28:36.711Z,2.85
2022-09-16T22:31:07.183Z,3.75
2022-09-16T22:33:35.011Z,4.90
2022-09-16T22:36:05.695Z,6.80
2022-09-16T22:38:32.796Z,7.22
2022-09-16T22:41:03.523Z,7.25
2022-09-16T22:43:35.084Z,6.63
2022-09-16T22:46:06.118Z,6.30
2022-09-16T22:48:33.577Z,4.60
2022-09-16T22:51:01.044Z,4.28
2022-09-16T22:53:29.118Z,4.40
2022-09-16T22:56:00.243Z,3.90
2022-09-16T22:58:27.982Z,3.50
2022-09-16T23:01:02.161Z,3.88
2022-09-16T23:03:29.330Z,3.50
2022-09-16T23:05:57.609Z,3.85
2022-09-16T23:08:25.696Z,3.75
2022-09-16T23:10:53.991Z,3.22
2022-09-16T23:13:21.735Z,3.33
2022-09-16T23:15:49.421Z,3.95
2022-09-16T23:18:18.686Z,3.67
2022-09-16T23:20:45.776Z,3.63
2022-09-16T23:23:12.811Z,4.10
2022-09-16T23:25:39.882Z,3.60
2022-09-16T23:28:06.921Z,3.85
2022-09-16T23:30:34.141Z,4.20
2022-09-16T23:33:01.180Z,3.25
2022-09-16T23:35:28.249Z,4.10
2022-09-16T23:37:57.573Z,3.40
2022-09-16T23:40:27.428Z,3.13
2022-09-16T23:42:56.077Z,3.92
2022-09-16T23:45:23.554Z,3.83
2022-09-16T23:47:50.658Z,3.63
2022-09-16T23:50:17.742Z,3.20
2022-09-16T23:52:44.855Z,2.60
2022-09-16T23:55:11.992Z,3.50
2022-09-16T23:57:39.036Z,3.88
